Главная страница
METAR-TAF:

METAR-TAF

Аэропорты :

Люблин, Польша

широта: 51-13-55N, долгота: 22-41-25E, высота над уровнем моря: 203 м

Текущие метеонаблюдения

Эта сводка был подготовлена 15 минут назад, в 05:30 UTC
Ветер 6 Узел от юго-западный
Температура 2°C
Влажность 80%
Давление 1020 hPa
Видимость 10 км и более
Нет облачности ниже 1500 м, и нет кучево-дождевой облачности

METAR: EPLB 190530Z 23006KT CAVOK 02/M01 Q1020

Время: 06:45 (05:45 UTC)

Прогноз

Эта сводка был подготовлена 15 минут назад, в 05:30 UTC
Прогноз действительный с 19-го 06 UTC до 19-го 15 UTC
Ветер 10 Узел от западный
Видимость 10 км и более
Нет облачности ниже 1500 м, и нет кучево-дождевой облачности

TAF: EPLB 190530Z 1906/1915 26010KT CAVOK

Метеонаблюдения и прогнозы для более 4000 аэропортов (сводки METAR и TAF).

Имеющиеся станции представлены на карте желтыми и красными точками.

Чтобы увидеть название станции, наведите на нее мышь.

Затем щелкните, чтобы увидеть метеонаблюдения и метеопрогнозы.

Управление картой: чтобы увеличить масштаб, щелкните зеленые кнопки с черным крестиком; чтобы уменьшить масштаб, щелкните зеленую кнопку с тире; для просмотра соседних карт щелкайте зеленые стрелки.


METAR-TAF: